createdAt,value
2023-01-08T00:02:27.969Z,97.99
2023-01-08T00:05:42.979Z,98.08
2023-01-08T00:08:45.962Z,97.81
2023-01-08T00:12:00.960Z,97.84
2023-01-08T00:15:04.749Z,97.65
2023-01-08T00:18:20.049Z,97.30
2023-01-08T00:21:28.973Z,97.11
2023-01-08T00:24:44.784Z,97.14
2023-01-08T00:27:52.979Z,97.15
2023-01-08T00:31:14.005Z,97.36
2023-01-08T00:34:15.898Z,97.93
2023-01-08T00:37:31.979Z,97.70
2023-01-08T00:40:35.338Z,97.73
2023-01-08T00:43:49.994Z,97.70
2023-01-08T00:46:51.811Z,97.64
2023-01-08T00:50:06.992Z,97.73
2023-01-08T00:53:14.993Z,97.50
2023-01-08T00:56:23.733Z,97.35
2023-01-08T00:59:32.013Z,97.32
2023-01-08T01:02:41.515Z,97.34
2023-01-08T01:05:56.004Z,97.05
2023-01-08T01:09:04.021Z,96.97
2023-01-08T01:12:19.009Z,96.85
2023-01-08T01:15:20.792Z,96.51
2023-01-08T01:18:36.994Z,96.25
2023-01-08T01:21:45.664Z,96.15
2023-01-08T01:25:00.980Z,96.30
2023-01-08T01:28:17.043Z,96.87
2023-01-08T01:31:26.004Z,96.46
2023-01-08T01:34:41.014Z,96.56
2023-01-08T01:37:49.616Z,96.44
2023-01-08T01:40:58.009Z,96.34
2023-01-08T01:44:43.034Z,96.34
2023-01-08T01:47:53.606Z,96.43
2023-01-08T01:51:08.025Z,96.66
2023-01-08T01:54:18.128Z,96.55
2023-01-08T01:57:27.060Z,96.81
2023-01-08T02:00:36.568Z,96.47
2023-01-08T02:03:47.068Z,96.57
2023-01-08T02:07:11.457Z,96.45
2023-01-08T02:10:32.006Z,96.28
2023-01-08T02:13:51.978Z,96.10
2023-01-08T02:17:01.807Z,96.37
2023-01-08T02:20:27.022Z,96.41
2023-01-08T02:23:53.337Z,96.59
2023-01-08T02:27:11.089Z,96.56
2023-01-08T02:30:13.068Z,97.17
2023-01-08T02:33:31.073Z,96.75
2023-01-08T02:36:39.900Z,96.44
2023-01-08T02:40:14.066Z,96.10
2023-01-08T02:43:31.029Z,96.31
2023-01-08T02:46:41.921Z,96.48
2023-01-08T02:49:53.074Z,96.52
2023-01-08T02:53:22.020Z,96.69
2023-01-08T02:56:35.988Z,96.31
2023-01-08T02:59:48.020Z,96.21
2023-01-08T03:03:09.752Z,96.22
2023-01-08T03:06:22.050Z,96.33
2023-01-08T03:09:31.340Z,96.19
2023-01-08T03:12:52.044Z,96.03
2023-01-08T03:16:14.066Z,95.69
2023-01-08T03:19:39.081Z,95.83
2023-01-08T03:23:04.040Z,95.97
2023-01-08T03:26:18.502Z,96.05
2023-01-08T03:29:34.036Z,96.18
2023-01-08T03:32:39.032Z,96.63
2023-01-08T03:35:58.041Z,97.03
2023-01-08T03:39:07.777Z,97.22
2023-01-08T03:42:24.075Z,97.31
2023-01-08T03:45:30.229Z,97.45
2023-01-08T03:48:46.048Z,97.83
2023-01-08T03:51:54.065Z,97.74
2023-01-08T03:55:02.964Z,97.89
2023-01-08T03:58:11.168Z,98.05
2023-01-08T04:01:26.150Z,98.23
2023-01-08T04:04:28.218Z,97.93
2023-01-08T04:07:43.085Z,97.64
2023-01-08T04:10:44.900Z,98.20
2023-01-08T04:14:00.167Z,98.37
2023-01-08T04:17:01.968Z,98.29
2023-01-08T04:20:18.070Z,98.49
2023-01-08T04:23:19.885Z,98.55
2023-01-08T04:26:35.061Z,98.32
2023-01-08T04:29:43.107Z,98.33
2023-01-08T04:32:51.714Z,98.48
2023-01-08T04:36:00.084Z,98.18
2023-01-08T04:39:10.586Z,98.33
2023-01-08T04:42:19.110Z,98.12
2023-01-08T04:45:27.747Z,97.65
2023-01-08T04:48:43.148Z,97.95
2023-01-08T04:51:44.953Z,97.70
2023-01-08T04:55:00.107Z,98.10
2023-01-08T04:58:01.939Z,97.97
2023-01-08T05:01:25.299Z,97.79
2023-01-08T05:04:27.283Z,97.67
2023-01-08T05:07:42.104Z,97.69
2023-01-08T05:10:43.895Z,97.68
2023-01-08T05:14:00.158Z,97.71
2023-01-08T05:17:01.940Z,97.57
2023-01-08T05:20:19.100Z,97.54
2023-01-08T05:23:21.178Z,97.27
2023-01-08T05:26:43.132Z,97.33
2023-01-08T05:29:45.035Z,97.05
2023-01-08T05:33:05.093Z,96.97
2023-01-08T05:36:09.476Z,97.35
2023-01-08T05:39:24.148Z,96.91
2023-01-08T05:42:34.517Z,96.97
2023-01-08T05:45:43.106Z,97.04
2023-01-08T05:48:58.103Z,97.14
2023-01-08T05:51:59.975Z,96.94
2023-01-08T05:55:16.130Z,96.70
2023-01-08T05:58:18.052Z,97.08
2023-01-08T06:01:34.190Z,97.09
2023-01-08T06:04:42.232Z,96.93
2023-01-08T06:07:50.768Z,97.06
2023-01-08T06:10:59.176Z,97.02
2023-01-08T06:14:07.752Z,96.79
2023-01-08T06:17:16.120Z,97.11
2023-01-08T06:20:31.158Z,96.88
2023-01-08T06:23:40.125Z,96.67
2023-01-08T06:26:56.418Z,96.59
2023-01-08T06:30:05.138Z,96.96
2023-01-08T06:33:13.837Z,97.30
2023-01-08T06:36:22.164Z,97.64
2023-01-08T06:39:30.878Z,97.62
2023-01-08T06:42:39.149Z,97.80
2023-01-08T06:45:54.570Z,97.33
2023-01-08T06:49:03.195Z,97.42
2023-01-08T06:52:12.048Z,97.01
2023-01-08T06:55:20.211Z,96.86
2023-01-08T06:58:28.957Z,96.81
2023-01-08T07:01:37.228Z,96.65
2023-01-08T07:04:52.150Z,96.71
2023-01-08T07:07:54.091Z,96.41
2023-01-08T07:11:10.214Z,96.34
2023-01-08T07:14:18.144Z,96.55
2023-01-08T07:17:26.820Z,96.25
2023-01-08T07:20:42.173Z,96.27
2023-01-08T07:23:44.697Z,96.42
2023-01-08T07:26:59.164Z,96.24
2023-01-08T07:30:08.407Z,96.18
2023-01-08T07:33:20.301Z,96.16
2023-01-08T07:36:29.296Z,96.08
2023-01-08T07:39:37.914Z,95.88
2023-01-08T07:42:46.161Z,96.17
2023-01-08T07:45:54.793Z,96.23
2023-01-08T07:49:03.219Z,96.56
2023-01-08T07:52:11.852Z,96.54
2023-01-08T07:55:20.173Z,97.07
2023-01-08T07:58:28.904Z,96.78
2023-01-08T08:01:37.290Z,96.13
2023-01-08T08:04:45.789Z,96.33
2023-01-08T08:07:54.278Z,96.14
2023-01-08T08:11:16.258Z,95.59
2023-01-08T08:14:25.069Z,95.58
2023-01-08T08:17:40.243Z,95.09
2023-01-08T08:20:42.148Z,95.02
2023-01-08T08:23:57.195Z,94.88
2023-01-08T08:27:05.187Z,94.84
2023-01-08T08:30:21.181Z,94.57
2023-01-08T08:33:29.196Z,94.74
2023-01-08T08:36:37.924Z,95.19
2023-01-08T08:39:46.339Z,94.99
2023-01-08T08:42:56.983Z,95.09
2023-01-08T08:46:06.209Z,95.27
2023-01-08T08:49:21.230Z,94.30
2023-01-08T08:52:23.369Z,94.42
2023-01-08T08:55:39.240Z,93.96
2023-01-08T08:58:41.091Z,93.67
2023-01-08T09:01:56.305Z,93.58
2023-01-08T09:04:58.240Z,92.93
2023-01-08T09:08:13.251Z,92.44
2023-01-08T09:11:21.236Z,92.32
2023-01-08T09:14:32.836Z,92.13
2023-01-08T09:17:41.202Z,91.82
2023-01-08T09:20:49.990Z,91.48
2023-01-08T09:24:05.184Z,91.40
2023-01-08T09:27:14.224Z,91.58
2023-01-08T09:30:29.197Z,91.07
2023-01-08T09:33:31.483Z,90.13
2023-01-08T09:36:46.260Z,89.54
2023-01-08T09:39:57.733Z,89.67
2023-01-08T09:43:25.269Z,89.33
2023-01-08T09:46:41.324Z,89.89
2023-01-08T09:49:46.486Z,90.50
2023-01-08T09:53:01.249Z,89.64
2023-01-08T09:56:11.045Z,89.65
2023-01-08T09:59:27.394Z,88.58
2023-01-08T10:02:40.276Z,88.28
2023-01-08T10:05:55.277Z,87.15
2023-01-08T10:09:05.478Z,85.46
2023-01-08T10:12:19.306Z,85.73
2023-01-08T10:15:34.350Z,85.90
2023-01-08T10:18:37.175Z,86.23
2023-01-08T10:21:53.302Z,84.72
2023-01-08T10:25:20.279Z,84.63
2023-01-08T10:28:38.322Z,83.81
2023-01-08T10:31:50.848Z,83.49
2023-01-08T10:35:02.281Z,83.97
2023-01-08T10:38:33.194Z,84.38
2023-01-08T10:41:48.225Z,84.64
2023-01-08T10:44:56.637Z,85.07
2023-01-08T10:48:14.408Z,85.42
2023-01-08T10:51:21.021Z,85.02
2023-01-08T10:54:41.305Z,84.74
2023-01-08T10:57:55.694Z,85.05
2023-01-08T11:01:27.415Z,85.06
2023-01-08T11:04:39.289Z,84.92
2023-01-08T11:07:59.281Z,84.73
2023-01-08T11:11:02.206Z,84.18
2023-01-08T11:14:36.271Z,83.83
2023-01-08T11:17:38.091Z,83.77
2023-01-08T11:20:54.382Z,84.15
2023-01-08T11:24:22.281Z,83.91
2023-01-08T11:27:42.927Z,83.83
2023-01-08T11:31:01.092Z,83.72
2023-01-08T11:34:26.301Z,83.44
2023-01-08T11:37:33.912Z,82.75
2023-01-08T11:41:01.286Z,82.67
2023-01-08T11:44:19.116Z,82.30
2023-01-08T11:47:57.315Z,81.84
2023-01-08T11:51:25.384Z,82.05
2023-01-08T11:55:15.612Z,82.35
2023-01-08T11:58:30.303Z,81.54
2023-01-08T12:01:59.689Z,81.19
2023-01-08T12:05:36.345Z,81.11
2023-01-08T12:09:06.350Z,80.92
2023-01-08T12:12:35.600Z,80.84
2023-01-08T12:16:15.355Z,81.07
2023-01-08T12:19:54.550Z,81.32
2023-01-08T12:23:32.344Z,81.46
2023-01-08T12:27:25.973Z,81.55
2023-01-08T12:30:48.657Z,81.69
2023-01-08T12:34:18.369Z,81.62
2023-01-08T12:37:36.101Z,81.06
2023-01-08T12:40:58.335Z,81.27
2023-01-08T12:44:10.591Z,81.46
2023-01-08T12:47:29.341Z,81.42
2023-01-08T12:50:50.361Z,81.45
2023-01-08T12:54:26.450Z,81.44
2023-01-08T12:57:37.933Z,81.87
2023-01-08T13:01:03.397Z,82.04
2023-01-08T13:04:15.353Z,81.75
2023-01-08T13:07:35.352Z,81.62
2023-01-08T13:10:54.188Z,81.58
2023-01-08T13:14:14.361Z,82.00
2023-01-08T13:17:24.000Z,81.66
2023-01-08T13:20:38.364Z,81.73
2023-01-08T13:24:13.366Z,82.16
2023-01-08T13:27:35.371Z,82.22
2023-01-08T13:30:51.347Z,82.13
2023-01-08T13:33:54.445Z,82.17
2023-01-08T13:37:16.453Z,82.05
2023-01-08T13:40:45.569Z,82.29
2023-01-08T13:44:07.359Z,82.05
2023-01-08T13:47:32.380Z,82.32
2023-01-08T13:50:46.536Z,82.14
2023-01-08T13:54:01.396Z,82.00
2023-01-08T13:57:15.226Z,82.17
2023-01-08T14:00:31.381Z,81.97
2023-01-08T14:03:47.945Z,82.06
2023-01-08T14:06:56.539Z,82.13
2023-01-08T14:10:18.363Z,82.13
2023-01-08T14:13:35.413Z,82.18
2023-01-08T14:16:51.450Z,82.41
2023-01-08T14:19:53.545Z,82.34
2023-01-08T14:23:15.405Z,82.54
2023-01-08T14:26:35.477Z,82.87
2023-01-08T14:29:52.421Z,82.58
2023-01-08T14:32:56.771Z,83.00
2023-01-08T14:36:14.393Z,83.36
2023-01-08T14:39:30.404Z,83.53
2023-01-08T14:42:39.123Z,83.63
2023-01-08T14:45:54.468Z,84.07
2023-01-08T14:49:03.110Z,84.67
2023-01-08T14:52:16.400Z,84.75
2023-01-08T14:55:33.372Z,85.30
2023-01-08T14:58:41.868Z,85.29
2023-01-08T15:02:00.545Z,85.32
2023-01-08T15:05:21.428Z,85.53
2023-01-08T15:08:41.374Z,85.95
2023-01-08T15:12:01.501Z,86.32
2023-01-08T15:15:28.384Z,86.20
2023-01-08T15:18:30.648Z,86.39
2023-01-08T15:21:52.461Z,86.56
2023-01-08T15:25:22.423Z,86.54
2023-01-08T15:28:31.248Z,86.78
2023-01-08T15:31:54.512Z,86.83
2023-01-08T15:34:56.677Z,87.23
2023-01-08T15:38:13.436Z,87.24
2023-01-08T15:41:26.460Z,87.79
2023-01-08T15:44:41.425Z,88.06
2023-01-08T15:47:50.461Z,88.04
2023-01-08T15:50:59.244Z,88.54
2023-01-08T15:54:08.428Z,88.56
2023-01-08T15:57:17.101Z,88.38
2023-01-08T16:00:26.488Z,88.97
2023-01-08T16:03:35.252Z,88.88
2023-01-08T16:06:50.449Z,88.60
2023-01-08T16:09:59.477Z,88.86
2023-01-08T16:13:10.306Z,89.00
2023-01-08T16:16:22.485Z,89.32
2023-01-08T16:19:38.481Z,89.58
2023-01-08T16:22:40.518Z,89.68
2023-01-08T16:25:55.441Z,89.67
2023-01-08T16:28:57.311Z,89.76
2023-01-08T16:32:12.530Z,90.08
2023-01-08T16:35:21.492Z,89.90
2023-01-08T16:38:33.337Z,90.00
2023-01-08T16:41:42.482Z,89.91
2023-01-08T16:44:57.448Z,89.55
2023-01-08T16:48:05.460Z,89.95
2023-01-08T16:51:21.435Z,89.54
2023-01-08T16:54:30.532Z,89.45
2023-01-08T16:57:39.280Z,89.44
2023-01-08T17:00:47.524Z,89.56
2023-01-08T17:03:58.363Z,89.50
2023-01-08T17:07:08.527Z,89.59
2023-01-08T17:10:17.621Z,89.45
2023-01-08T17:13:26.539Z,89.70
2023-01-08T17:16:35.473Z,89.90
2023-01-08T17:19:43.483Z,90.09
2023-01-08T17:22:58.475Z,89.99
2023-01-08T17:26:09.633Z,90.50
2023-01-08T17:29:24.492Z,89.88
2023-01-08T17:32:29.464Z,89.73
2023-01-08T17:35:44.637Z,89.82
2023-01-08T17:38:47.456Z,89.75
2023-01-08T17:42:05.544Z,89.63
2023-01-08T17:45:07.980Z,89.31
2023-01-08T17:48:22.533Z,89.49
2023-01-08T17:51:24.697Z,89.36
2023-01-08T17:54:39.524Z,89.52
2023-01-08T17:57:41.582Z,89.65
2023-01-08T18:00:56.581Z,89.67
2023-01-08T18:04:05.515Z,89.87
2023-01-08T18:07:14.801Z,89.73
2023-01-08T18:10:23.522Z,89.83
2023-01-08T18:13:39.557Z,90.10
2023-01-08T18:16:48.522Z,89.81
2023-01-08T18:19:57.181Z,89.93
2023-01-08T18:23:05.515Z,90.10
2023-01-08T18:26:21.648Z,89.58
2023-01-08T18:29:30.552Z,89.67
2023-01-08T18:32:39.320Z,89.79
2023-01-08T18:35:54.531Z,89.78
2023-01-08T18:39:02.637Z,89.27
2023-01-08T18:42:11.389Z,89.17
2023-01-08T18:45:19.541Z,89.53
2023-01-08T18:48:35.598Z,89.36
2023-01-08T18:51:51.536Z,89.30
2023-01-08T18:54:53.606Z,89.36
2023-01-08T18:58:08.578Z,89.20
2023-01-08T19:01:17.677Z,89.43
2023-01-08T19:04:26.530Z,89.55
2023-01-08T19:07:41.605Z,89.70
2023-01-08T19:10:50.679Z,89.19
2023-01-08T19:13:59.189Z,89.18
2023-01-08T19:17:07.557Z,88.59
2023-01-08T19:20:16.670Z,88.72
2023-01-08T19:23:26.580Z,88.30
2023-01-08T19:26:48.561Z,88.60
2023-01-08T19:29:58.554Z,88.30
2023-01-08T19:33:07.324Z,88.07
2023-01-08T19:36:16.597Z,88.15
2023-01-08T19:39:25.576Z,88.47
2023-01-08T19:42:35.640Z,87.39
2023-01-08T19:45:45.765Z,86.54
2023-01-08T19:48:54.573Z,87.04
2023-01-08T19:52:10.585Z,86.14
2023-01-08T19:55:12.623Z,86.49
2023-01-08T19:58:27.594Z,86.56
2023-01-08T20:01:35.636Z,86.65
2023-01-08T20:04:50.600Z,85.51
2023-01-08T20:08:05.573Z,84.97
2023-01-08T20:11:10.554Z,84.44
2023-01-08T20:14:25.616Z,84.80
2023-01-08T20:17:27.534Z,84.33
2023-01-08T20:20:42.584Z,84.75
2023-01-08T20:23:51.611Z,84.41
2023-01-08T20:27:13.583Z,84.47
2023-01-08T20:30:28.636Z,83.67
2023-01-08T20:33:30.471Z,83.26
2023-01-08T20:36:45.625Z,82.95
2023-01-08T20:39:47.733Z,82.84
2023-01-08T20:43:02.606Z,82.25
2023-01-08T20:46:12.647Z,81.97
2023-01-08T20:49:21.520Z,82.24
2023-01-08T20:52:29.641Z,82.89
2023-01-08T20:55:38.705Z,82.54
2023-01-08T20:58:49.608Z,82.32
2023-01-08T21:01:58.427Z,82.15
2023-01-08T21:05:06.586Z,82.29
2023-01-08T21:08:21.667Z,82.34
2023-01-08T21:11:24.796Z,82.31
2023-01-08T21:14:39.673Z,82.76
2023-01-08T21:17:41.726Z,82.83
2023-01-08T21:20:56.665Z,83.29
2023-01-08T21:24:06.697Z,83.62
2023-01-08T21:27:28.645Z,84.34
2023-01-08T21:30:30.572Z,83.94
2023-01-08T21:33:48.515Z,84.23
2023-01-08T21:36:56.652Z,84.56
2023-01-08T21:40:12.649Z,84.67
2023-01-08T21:43:27.636Z,85.09
2023-01-08T21:46:35.666Z,84.81
2023-01-08T21:49:52.627Z,84.87
2023-01-08T21:52:54.531Z,84.60
2023-01-08T21:56:11.615Z,84.88
2023-01-08T21:59:27.662Z,85.13
2023-01-08T22:02:29.471Z,85.28
2023-01-08T22:05:44.668Z,85.31
2023-01-08T22:08:51.625Z,85.49
2023-01-08T22:12:06.677Z,85.73
2023-01-08T22:15:09.007Z,85.98
2023-01-08T22:18:23.747Z,86.19
2023-01-08T22:21:32.661Z,86.56
2023-01-08T22:24:47.672Z,86.89
2023-01-08T22:28:02.683Z,87.27
2023-01-08T22:31:14.387Z,87.54
2023-01-08T22:34:23.669Z,87.94
2023-01-08T22:37:32.184Z,87.57
2023-01-08T22:40:40.701Z,87.65
2023-01-08T22:43:59.642Z,87.76
2023-01-08T22:47:01.476Z,88.14
2023-01-08T22:50:17.704Z,88.57
2023-01-08T22:53:20.086Z,88.38
2023-01-08T22:56:34.670Z,88.62
2023-01-08T22:59:36.984Z,88.19
2023-01-08T23:02:51.698Z,88.14
2023-01-08T23:06:02.290Z,88.49
2023-01-08T23:09:11.700Z,88.37
2023-01-08T23:12:20.784Z,88.35
2023-01-08T23:15:29.689Z,88.42
2023-01-08T23:18:49.678Z,88.82
2023-01-08T23:21:51.579Z,88.88
2023-01-08T23:25:06.717Z,88.55
2023-01-08T23:28:21.710Z,88.47
2023-01-08T23:31:37.822Z,88.20
2023-01-08T23:34:46.686Z,87.86
2023-01-08T23:37:55.309Z,88.02
2023-01-08T23:41:04.675Z,88.61
2023-01-08T23:44:21.734Z,88.20
2023-01-08T23:47:30.757Z,88.02
2023-01-08T23:50:46.722Z,88.28
2023-01-08T23:53:48.664Z,88.35
2023-01-08T23:57:03.704Z,88.09
